Time;durP1;ratioP1;P1;durP2;ratioP2;P2;SDS_P1;SDS_P2;PMS_P1;PMS_P2;Temp;Humidity;BMP_temperature;BMP_pressure;BME280_temperature;BME280_humidity;BME280_pressure;Samples;Min_cycle;Max_cycle;Signal;HPM_P1;HPM_P2
2022/01/05 01:00:18;;;;;;;;;;;2.00;99.90;;;;;;6147802;23;19956;-77
2022/01/05 01:23:13;;;;;;;;;;;2.00;99.90;;;;;;6148196;23;19924;-80
2022/01/05 01:36:51;;;;;;;;;;;2.30;99.90;;;;;;6125744;23;20361;-76
2022/01/05 01:39:32;;;;;;;;;;;2.10;99.90;;;;;;6124944;23;19920;-77
2022/01/05 02:03:28;;;;;;;;;;;2.30;99.90;;;;;;6150811;23;19928;-78
2022/01/05 02:05:53;;;;;;;;;;;2.30;99.90;;;;;;6126304;23;19921;-77
2022/01/05 02:14:33;;;;;;;;;;;1.30;99.90;;;;;;6126022;23;19931;-77
2022/01/05 02:23:43;;;;;;;;;;;1.60;99.90;;;;;;6050101;23;19936;-78
2022/01/05 02:26:10;;;;;;;;;;;4.00;99.90;;;;;;6150648;23;20055;-79
2022/01/05 02:28:35;;;;;;;;;;;2.40;99.90;;;;;;6147970;23;20350;-78
2022/01/05 02:31:13;;;;;;;;;;;2.10;99.90;;;;;;6124755;23;19964;-79
2022/01/05 02:37:22;;;;;;;;;;;1.50;99.90;;;;;;6150150;23;20293;-77
2022/01/05 02:39:50;;;;;;;;;;;2.50;99.90;;;;;;6125679;23;19924;-78
2022/01/05 02:42:45;;;;;;;;;;;2.40;99.90;;;;;;6124716;23;20071;-79
2022/01/05 02:45:11;;;;;;;;;;;2.40;99.90;;;;;;6117555;23;19967;-78
2022/01/05 02:47:48;;;;;;;;;;;;;;;;;;;;;
2022/01/05 02:50:16;;;;;;;;;;;3.90;99.90;;;;;;6151156;23;19916;-77
2022/01/05 02:52:42;;;;;;;;;;;2.50;99.90;;;;;;6126668;23;19979;-78
2022/01/05 02:55:09;;;;;;;;;;;2.70;99.90;;;;;;6123838;23;20040;-78
2022/01/05 03:06:17;;;;;;;;;;;2.60;99.90;;;;;;6161003;23;19982;-77
2022/01/05 03:09:04;;;;;;;;;;;2.10;99.90;;;;;;6125968;23;20227;-79
2022/01/05 03:21:42;;;;;;;;;;;2.40;99.90;;;;;;6153451;23;19909;-79
2022/01/05 03:24:10;;;;;;;;;;;3.00;99.90;;;;;;6127000;23;19928;-78
2022/01/05 03:43:47;;;;;;;;;;;3.30;99.90;;;;;;6124252;23;19927;-77
2022/01/05 03:46:13;;;;;;;;;;;3.60;99.90;;;;;;6165511;23;19944;-77
2022/01/05 03:48:39;;;;;;;;;;;3.10;99.90;;;;;;6123624;23;20249;-76
2022/01/05 04:07:23;;;;;;;;;;;3.20;99.90;;;;;;6148718;23;19920;-78
2022/01/05 04:09:49;;;;;;;;;;;3.20;99.90;;;;;;6125990;23;19976;-77
2022/01/05 04:12:14;;;;;;;;;;;3.70;99.90;;;;;;6152009;23;20007;-77
2022/01/05 04:32:34;;;;;;;;;;;3.20;99.90;;;;;;6092664;23;20286;-82
2022/01/05 04:50:35;;;;;;;;;;;3.10;99.90;;;;;;6149152;23;20737;-79
2022/01/05 05:04:09;;;;;;;;;;;3.10;99.90;;;;;;6151127;23;19938;-79
2022/01/05 05:10:04;;;;;;;;;;;3.10;99.90;;;;;;6148486;23;19927;-78
2022/01/05 05:12:58;;;;;;;;;;;3.10;99.90;;;;;;6150430;23;19920;-78
2022/01/05 05:22:31;;;;;;;;;;;2.50;99.90;;;;;;6154386;23;19978;-79
2022/01/05 05:43:31;;;;;;;;;;;3.50;99.90;;;;;;6148853;23;20294;-81
2022/01/05 05:59:19;;;;;;;;;;;3.40;99.90;;;;;;6028501;23;19913;-80
2022/01/05 06:05:27;;;;;;;;;;;3.90;99.90;;;;;;6028783;23;19932;-79
2022/01/05 08:37:09;;;;;;;;;;;4.40;99.90;;;;;;6149506;23;19920;-83
2022/01/05 09:09:58;;;;;;;;;;;4.70;99.90;;;;;;6128640;23;19941;-81
2022/01/05 09:19:20;;;;;;;;;;;3.00;99.90;;;;;;6004740;23;20042;-81
2022/01/05 09:21:49;;;;;;;;;;;4.70;99.90;;;;;;5975630;23;19946;-82
2022/01/05 09:24:18;;;;;;;;;;;5.80;99.90;;;;;;6087346;23;19932;-86
2022/01/05 09:26:43;;;;;;;;;;;4.70;99.90;;;;;;6145215;23;19924;-81
2022/01/05 09:29:09;;;;;;;;;;;4.80;99.90;;;;;;6146161;23;19927;-80
2022/01/05 09:31:34;;;;;;;;;;;4.80;99.90;;;;;;6147263;23;19988;-80
2022/01/05 09:34:00;;;;;;;;;;;4.80;99.90;;;;;;6147142;23;20366;-81
2022/01/05 09:36:36;;;;;;;;;;;4.90;99.90;;;;;;6121009;23;19924;-84
2022/01/05 09:42:05;;;;;;;;;;;5.10;99.90;;;;;;6117382;23;20003;-80
2022/01/05 09:44:41;;;;;;;;;;;5.20;99.90;;;;;;6146745;23;20341;-80
2022/01/05 09:47:26;;;;;;;;;;;5.30;99.90;;;;;;6145205;23;19948;-80
2022/01/05 09:49:53;;;;;;;;;;;5.40;99.90;;;;;;6149425;23;20206;-81
2022/01/05 09:52:19;;;;;;;;;;;5.70;99.90;;;;;;6148022;23;19920;-81
2022/01/05 09:54:45;;;;;;;;;;;5.90;99.90;;;;;;6149324;23;19931;-80
2022/01/05 09:57:11;;;;;;;;;;;6.00;99.90;;;;;;6145797;23;20664;-79
2022/01/05 09:59:37;;;;;;;;;;;6.00;99.90;;;;;;6146854;23;19932;-79
2022/01/05 10:02:03;;;;;;;;;;;5.90;99.90;;;;;;6146304;23;19920;-78
2022/01/05 10:04:29;;;;;;;;;;;5.90;99.90;;;;;;6123213;23;20067;-82
2022/01/05 10:06:55;;;;;;;;;;;6.20;99.90;;;;;;6145267;23;20834;-77
2022/01/05 10:09:20;;;;;;;;;;;6.50;99.90;;;;;;6122010;23;19947;-81
2022/01/05 10:11:46;;;;;;;;;;;6.70;99.90;;;;;;6148556;23;19982;-82
2022/01/05 10:14:12;;;;;;;;;;;7.30;99.90;;;;;;6146115;23;19924;-79
2022/01/05 10:16:39;;;;;;;;;;;8.10;99.90;;;;;;6148625;23;19921;-80
2022/01/05 10:19:06;;;;;;;;;;;9.00;99.90;;;;;;6148152;23;19920;-81
2022/01/05 10:21:35;;;;;;;;;;;9.70;99.90;;;;;;6146239;23;19921;-83
2022/01/05 10:24:01;;;;;;;;;;;10.20;99.90;;;;;;6124762;23;19928;-81
2022/01/05 10:26:27;;;;;;;;;;;10.60;99.90;;;;;;6149984;23;19929;-81
2022/01/05 10:29:03;;;;;;;;;;;11.00;99.90;;;;;;6122370;23;19931;-82
2022/01/05 10:31:33;;;;;;;;;;;11.30;99.90;;;;;;6153072;23;19996;-80
2022/01/05 10:33:59;;;;;;;;;;;11.70;99.90;;;;;;6123025;23;19996;-82
2022/01/05 10:36:41;;;;;;;;;;;12.10;99.90;;;;;;6121234;23;19959;-81
2022/01/05 10:39:06;;;;;;;;;;;12.30;99.90;;;;;;6144457;23;19948;-79
2022/01/05 10:41:36;;;;;;;;;;;12.30;99.90;;;;;;6143703;23;20344;-81
2022/01/05 10:44:17;;;;;;;;;;;12.10;99.90;;;;;;6144571;23;19975;-82
2022/01/05 10:46:44;;;;;;;;;;;11.80;99.90;;;;;;6118333;23;19921;-79
2022/01/05 10:49:20;;;;;;;;;;;11.40;99.90;;;;;;6143629;23;19917;-81
2022/01/05 10:51:46;;;;;;;;;;;10.70;99.90;;;;;;6121616;23;20092;-82
2022/01/05 10:54:15;;;;;;;;;;;10.00;99.90;;;;;;6116900;23;20027;-81
2022/01/05 10:56:41;;;;;;;;;;;9.50;99.90;;;;;;6118352;23;19925;-83
2022/01/05 10:59:07;;;;;;;;;;;9.20;99.90;;;;;;6145769;23;20014;-85
2022/01/05 11:01:33;;;;;;;;;;;8.90;99.90;;;;;;6148951;23;19921;-87
2022/01/05 11:04:13;;;;;;;;;;;8.60;99.90;;;;;;6143593;23;19928;-82
2022/01/05 11:06:52;;;;;;;;;;;8.50;99.90;;;;;;6145247;23;20301;-81
2022/01/05 11:09:19;;;;;;;;;;;8.70;99.90;;;;;;6120243;23;19955;-82
2022/01/05 11:11:46;;;;;;;;;;;8.80;99.90;;;;;;6120751;23;20011;-82
2022/01/05 11:14:29;;;;;;;;;;;8.90;99.90;;;;;;6143908;23;19925;-81
2022/01/05 11:16:56;;;;;;;;;;;9.20;99.90;;;;;;6154222;23;20021;-84
2022/01/05 11:19:23;;;;;;;;;;;9.60;99.90;;;;;;6149309;23;19928;-80
2022/01/05 11:21:59;;;;;;;;;;;10.50;99.90;;;;;;6122062;23;20064;-80
2022/01/05 11:24:25;;;;;;;;;;;10.10;99.90;;;;;;6122537;23;19927;-85
2022/01/05 11:26:51;;;;;;;;;;;9.70;99.90;;;;;;6118840;23;19924;-83
2022/01/05 11:29:17;;;;;;;;;;;9.40;99.90;;;;;;6143121;23;19935;-84
2022/01/05 11:31:45;;;;;;;;;;;9.60;99.90;;;;;;6145557;23;20299;-82
2022/01/05 11:34:11;;;;;;;;;;;9.90;99.90;;;;;;6143625;23;19921;-83
2022/01/05 11:36:37;;;;;;;;;;;9.00;99.90;;;;;;6146068;23;19931;-81
2022/01/05 11:39:03;;;;;;;;;;;8.70;99.90;;;;;;6121689;23;19917;-82
2022/01/05 11:41:29;;;;;;;;;;;8.40;99.90;;;;;;6120553;23;20387;-80
2022/01/05 11:43:54;;;;;;;;;;;8.30;99.90;;;;;;6146943;23;19916;-79
2022/01/05 11:46:21;;;;;;;;;;;8.10;99.90;;;;;;6121121;23;20297;-84
2022/01/05 11:49:07;;;;;;;;;;;8.00;99.90;;;;;;6147339;23;19932;-85
2022/01/05 11:51:41;;;;;;;;;;;7.90;99.90;;;;;;6148355;23;19928;-84
2022/01/05 11:54:13;;;;;;;;;;;7.70;99.90;;;;;;6120715;23;20055;-83
2022/01/05 11:56:44;;;;;;;;;;;7.60;99.90;;;;;;6144628;23;19920;-84
2022/01/05 11:59:33;;;;;;;;;;;7.60;99.90;;;;;;6121449;23;19987;-82
2022/01/05 12:02:02;;;;;;;;;;;7.40;99.90;;;;;;6127087;23;19928;-82
2022/01/05 12:04:27;;;;;;;;;;;7.40;99.90;;;;;;6121620;23;20225;-82
2022/01/05 12:07:00;;;;;;;;;;;7.50;99.90;;;;;;6143036;23;20055;-83
2022/01/05 12:09:28;;;;;;;;;;;7.40;99.90;;;;;;6144410;23;19947;-84
2022/01/05 12:11:54;;;;;;;;;;;7.40;99.90;;;;;;6123269;23;19956;-84
2022/01/05 12:14:19;;;;;;;;;;;7.30;99.90;;;;;;6147912;23;19920;-81
2022/01/05 12:17:06;;;;;;;;;;;7.30;99.90;;;;;;6123230;23;19927;-83
2022/01/05 12:19:47;;;;;;;;;;;7.30;99.90;;;;;;6120291;23;20019;-83
2022/01/05 12:22:19;;;;;;;;;;;7.30;99.90;;;;;;6124045;23;19931;-83
2022/01/05 12:25:00;;;;;;;;;;;7.20;99.90;;;;;;6123772;23;19944;-83
2022/01/05 12:27:27;;;;;;;;;;;7.10;99.90;;;;;;6141926;23;19929;-85
2022/01/05 12:29:54;;;;;;;;;;;7.10;99.90;;;;;;6145291;23;19940;-85
2022/01/05 12:32:34;;;;;;;;;;;7.00;99.90;;;;;;6143797;23;19920;-85
2022/01/05 12:35:03;;;;;;;;;;;6.90;99.90;;;;;;6120974;23;20004;-81
2022/01/05 12:37:38;;;;;;;;;;;6.90;99.90;;;;;;6124990;23;20502;-85
2022/01/05 12:40:23;;;;;;;;;;;6.90;99.90;;;;;;6149266;23;19924;-83
2022/01/05 12:43:07;;;;;;;;;;;6.90;99.90;;;;;;6148100;23;19921;-82
2022/01/05 12:45:45;;;;;;;;;;;6.90;99.90;;;;;;6123568;23;20411;-86
2022/01/05 12:48:29;;;;;;;;;;;6.90;99.90;;;;;;6124004;23;19925;-85
2022/01/05 12:50:55;;;;;;;;;;;6.90;99.90;;;;;;6123352;23;19928;-84
2022/01/05 12:53:35;;;;;;;;;;;6.90;99.90;;;;;;6143984;23;20334;-83
2022/01/05 12:56:01;;;;;;;;;;;6.90;99.90;;;;;;6144505;23;19925;-85
2022/01/05 12:58:32;;;;;;;;;;;6.80;99.90;;;;;;6142008;23;20011;-84
2022/01/05 13:00:58;;;;;;;;;;;6.80;99.90;;;;;;6120358;23;19972;-82
2022/01/05 13:03:33;;;;;;;;;;;6.70;99.90;;;;;;6142224;23;19928;-82
2022/01/05 13:06:21;;;;;;;;;;;6.80;99.90;;;;;;6144193;23;19928;-82
2022/01/05 13:08:58;;;;;;;;;;;6.80;99.90;;;;;;6103244;23;19952;-82
2022/01/05 13:11:32;;;;;;;;;;;6.80;99.90;;;;;;6142055;23;20401;-84
2022/01/05 13:14:24;;;;;;;;;;;6.90;99.90;;;;;;6142277;23;20361;-83
2022/01/05 13:16:51;;;;;;;;;;;6.80;99.90;;;;;;6112019;23;20325;-85
2022/01/05 13:19:24;;;;;;;;;;;6.90;99.90;;;;;;6114885;23;19928;-84
2022/01/05 13:21:52;;;;;;;;;;;6.90;99.90;;;;;;6143540;23;20364;-85
2022/01/05 13:24:17;;;;;;;;;;;6.90;99.90;;;;;;6143703;23;19928;-83
2022/01/05 13:27:02;;;;;;;;;;;6.90;99.90;;;;;;6145116;23;19974;-84
2022/01/05 13:29:28;;;;;;;;;;;6.90;99.90;;;;;;6121104;23;19928;-86
2022/01/05 13:31:58;;;;;;;;;;;6.90;99.90;;;;;;6126821;23;19935;-85
2022/01/05 13:34:38;;;;;;;;;;;6.80;99.90;;;;;;6122181;23;19929;-83
2022/01/05 13:37:04;;;;;;;;;;;6.70;99.90;;;;;;6150837;23;19959;-83
2022/01/05 13:39:37;;;;;;;;;;;6.60;99.90;;;;;;6145581;23;19920;-83
2022/01/05 13:42:03;;;;;;;;;;;6.50;99.90;;;;;;6149088;23;19929;-83
2022/01/05 13:44:28;;;;;;;;;;;6.40;99.90;;;;;;6147951;23;20470;-86
2022/01/05 13:46:54;;;;;;;;;;;6.30;99.90;;;;;;6148773;23;19932;-83
2022/01/05 13:49:20;;;;;;;;;;;6.20;99.90;;;;;;6145670;23;19929;-80
2022/01/05 13:52:05;;;;;;;;;;;6.10;99.90;;;;;;6147848;23;19928;-89
2022/01/05 13:54:35;;;;;;;;;;;6.00;99.90;;;;;;6130953;23;19921;-87
2022/01/05 13:57:01;;;;;;;;;;;5.90;99.90;;;;;;6151926;23;19920;-83
2022/01/05 13:59:46;;;;;;;;;;;5.80;99.90;;;;;;6148832;23;20565;-86
2022/01/05 14:02:12;;;;;;;;;;;5.80;99.90;;;;;;6154460;23;20353;-91
2022/01/05 14:04:48;;;;;;;;;;;5.80;99.90;;;;;;6152765;23;19921;-84
2022/01/05 14:07:16;;;;;;;;;;;5.80;99.90;;;;;;6123948;23;19920;-85
2022/01/05 14:09:42;;;;;;;;;;;5.90;99.90;;;;;;6149853;23;19975;-82
2022/01/05 14:12:26;;;;;;;;;;;6.80;99.90;;;;;;6123424;23;19931;-83
2022/01/05 14:14:56;;;;;;;;;;;5.90;99.90;;;;;;6150904;23;19922;-83
2022/01/05 14:17:22;;;;;;;;;;;5.90;99.90;;;;;;6152106;23;19921;-82
2022/01/05 14:19:47;;;;;;;;;;;5.80;99.90;;;;;;6147883;23;19979;-81
2022/01/05 14:22:18;;;;;;;;;;;5.80;99.90;;;;;;6119774;23;19924;-84
2022/01/05 14:24:45;;;;;;;;;;;5.70;99.90;;;;;;6148198;23;20300;-80
2022/01/05 14:27:18;;;;;;;;;;;5.70;99.90;;;;;;6148856;23;19928;-86
2022/01/05 14:29:43;;;;;;;;;;;5.70;99.90;;;;;;6122369;23;20083;-91
2022/01/05 14:32:12;;;;;;;;;;;5.60;99.90;;;;;;6123308;23;19967;-84
2022/01/05 14:34:42;;;;;;;;;;;5.70;99.90;;;;;;6124964;23;19924;-88
2022/01/05 14:37:11;;;;;;;;;;;5.70;99.90;;;;;;6124787;23;19921;-86
2022/01/05 14:39:47;;;;;;;;;;;5.70;99.90;;;;;;6125284;23;20005;-85
2022/01/05 14:42:16;;;;;;;;;;;5.70;99.90;;;;;;6124833;23;19920;-90
2022/01/05 14:44:46;;;;;;;;;;;5.80;99.90;;;;;;6149883;23;20001;-87
2022/01/05 14:47:12;;;;;;;;;;;5.90;99.90;;;;;;6145176;23;19951;-83
2022/01/05 14:49:41;;;;;;;;;;;5.90;99.90;;;;;;6149093;23;19927;-86
2022/01/05 14:52:08;;;;;;;;;;;6.00;99.90;;;;;;6148342;23;19924;-89
2022/01/05 14:54:36;;;;;;;;;;;6.90;99.90;;;;;;6123708;23;19924;-83
2022/01/05 14:57:22;;;;;;;;;;;6.00;99.90;;;;;;6150765;23;19921;-89
2022/01/05 14:59:48;;;;;;;;;;;6.00;99.90;;;;;;6130537;23;19932;-85
2022/01/05 15:02:14;;;;;;;;;;;6.00;99.90;;;;;;6127269;23;19920;-91
2022/01/05 15:04:39;;;;;;;;;;;6.00;99.90;;;;;;6126755;23;19944;-93
2022/01/05 15:07:08;;;;;;;;;;;6.00;99.90;;;;;;6150507;23;19924;-87
2022/01/05 15:09:36;;;;;;;;;;;6.00;99.90;;;;;;6145088;23;19921;-84
2022/01/05 15:12:04;;;;;;;;;;;6.00;99.90;;;;;;6152889;23;20197;-84
2022/01/05 15:14:31;;;;;;;;;;;6.00;99.90;;;;;;6147879;23;20021;-80
2022/01/05 15:16:57;;;;;;;;;;;6.00;99.90;;;;;;6144109;23;20030;-85
2022/01/05 15:19:22;;;;;;;;;;;6.00;99.90;;;;;;6123648;23;19916;-82
2022/01/05 15:21:48;;;;;;;;;;;5.90;99.90;;;;;;6119139;23;19921;-87
2022/01/05 15:24:13;;;;;;;;;;;5.90;99.90;;;;;;6114687;23;19925;-84
2022/01/05 15:26:39;;;;;;;;;;;5.80;99.90;;;;;;6142720;23;19958;-86
2022/01/05 15:29:05;;;;;;;;;;;5.80;99.90;;;;;;6144020;23;19921;-82
2022/01/05 15:31:30;;;;;;;;;;;5.80;99.90;;;;;;6138937;23;19928;-80
2022/01/05 15:33:56;;;;;;;;;;;5.70;99.90;;;;;;6140828;23;19925;-79
2022/01/05 15:36:23;;;;;;;;;;;5.70;99.90;;;;;;6122688;23;20292;-82
2022/01/05 15:38:49;;;;;;;;;;;5.70;99.90;;;;;;6144632;23;19994;-82
2022/01/05 15:41:15;;;;;;;;;;;5.60;99.90;;;;;;6146506;23;20306;-82
2022/01/05 15:43:40;;;;;;;;;;;5.60;99.90;;;;;;6149898;23;19920;-84
2022/01/05 15:46:09;;;;;;;;;;;5.60;99.90;;;;;;6147880;23;19916;-82
2022/01/05 15:48:35;;;;;;;;;;;5.60;99.90;;;;;;6146614;23;19956;-83
2022/01/05 15:51:04;;;;;;;;;;;5.60;99.90;;;;;;6149197;23;19925;-83
2022/01/05 15:53:31;;;;;;;;;;;5.60;99.90;;;;;;6143205;23;20007;-84
2022/01/05 15:56:12;;;;;;;;;;;5.50;99.90;;;;;;6122163;23;19931;-84
2022/01/05 16:01:29;;;;;;;;;;;5.50;99.90;;;;;;6122079;23;20052;-85
2022/01/05 16:03:57;;;;;;;;;;;5.90;99.90;;;;;;6117080;23;19916;-82
2022/01/05 16:06:23;;;;;;;;;;;5.50;99.90;;;;;;6122042;23;20051;-85
2022/01/05 16:08:50;;;;;;;;;;;5.50;99.90;;;;;;6139700;23;19948;-84
2022/01/05 16:11:16;;;;;;;;;;;5.50;99.90;;;;;;6142517;23;19920;-83
2022/01/05 16:13:43;;;;;;;;;;;5.60;99.90;;;;;;6144387;23;19920;-81
2022/01/05 16:16:08;;;;;;;;;;;5.60;99.90;;;;;;6146687;23;19975;-81
2022/01/05 16:18:34;;;;;;;;;;;5.60;99.90;;;;;;6144580;23;20463;-82
2022/01/05 16:20:59;;;;;;;;;;;5.60;99.90;;;;;;6145857;23;20035;-82
2022/01/05 16:23:25;;;;;;;;;;;5.60;99.90;;;;;;6142918;23;20692;-82
2022/01/05 16:25:51;;;;;;;;;;;5.60;99.90;;;;;;6157718;23;20071;-80
2022/01/05 16:43:48;;;;;;;;;;;5.40;99.90;;;;;;6059024;23;1944636;-84
2022/01/05 16:46:19;;;;;;;;;;;5.40;99.90;;;;;;6143695;23;19921;-80
2022/01/05 16:48:44;;;;;;;;;;;5.40;99.90;;;;;;6124915;23;20047;-79
2022/01/05 16:51:10;;;;;;;;;;;5.40;99.90;;;;;;6155243;23;20019;-81
2022/01/05 16:53:36;;;;;;;;;;;5.40;99.90;;;;;;6157789;23;19920;-85
2022/01/05 17:01:36;;;;;;;;;;;5.30;99.90;;;;;;6121931;23;20396;-83
2022/01/05 17:04:02;;;;;;;;;;;5.30;99.90;;;;;;6124081;23;19935;-82
2022/01/05 17:41:11;;;;;;;;;;;5.10;99.90;;;;;;6141108;23;19931;-85
2022/01/05 17:57:05;;;;;;;;;;;4.30;99.90;;;;;;6148886;23;20000;-82
2022/01/05 17:59:30;;;;;;;;;;;5.00;99.90;;;;;;6118640;23;19964;-79
2022/01/05 18:05:19;;;;;;;;;;;5.10;99.90;;;;;;6058670;23;20091;-83
2022/01/05 18:49:19;;;;;;;;;;;4.50;99.90;;;;;;6164443;23;19999;-83
2022/01/05 18:51:44;;;;;;;;;;;4.40;99.90;;;;;;6119195;23;19975;-83
2022/01/05 19:00:08;;;;;;;;;;;4.50;99.90;;;;;;6139986;23;19925;-85
2022/01/05 19:02:37;;;;;;;;;;;4.50;99.90;;;;;;6122079;23;19920;-84
2022/01/05 19:18:49;;;;;;;;;;;4.40;99.90;;;;;;6143178;23;19980;-80
2022/01/05 19:21:15;;;;;;;;;;;4.30;99.90;;;;;;6121843;23;20300;-85
2022/01/05 19:35:07;;;;;;;;;;;3.40;99.90;;;;;;6143473;23;19916;-83
2022/01/05 19:37:33;;;;;;;;;;;4.20;99.90;;;;;;6120797;23;19920;-85
2022/01/05 19:40:37;;;;;;;;;;;;;;;;;;;;;
2022/01/05 19:46:41;;;;;;;;;;;4.20;99.90;;;;;;6121660;23;19959;-83
2022/01/05 20:21:10;;;;;;;;;;;4.30;99.90;;;;;;6143818;23;21167;-82
2022/01/05 20:23:38;;;;;;;;;;;4.30;99.90;;;;;;6122271;23;19921;-82
2022/01/05 20:26:04;;;;;;;;;;;4.40;99.90;;;;;;6118901;23;19932;-80
2022/01/05 20:28:56;;;;;;;;;;;4.40;99.90;;;;;;6144999;23;19925;-80
2022/01/05 20:31:42;;;;;;;;;;;4.40;99.90;;;;;;6113461;23;20349;-83
2022/01/05 20:34:13;;;;;;;;;;;4.40;99.90;;;;;;6147808;23;20012;-81
2022/01/05 20:36:42;;;;;;;;;;;4.40;99.90;;;;;;6123125;23;19928;-81
2022/01/05 20:39:17;;;;;;;;;;;4.30;99.90;;;;;;6123700;23;19924;-81
2022/01/05 20:41:46;;;;;;;;;;;3.80;99.90;;;;;;6146619;23;20004;-81
2022/01/05 20:44:18;;;;;;;;;;;4.80;99.90;;;;;;6143714;23;19917;-81
2022/01/05 20:46:44;;;;;;;;;;;4.20;99.90;;;;;;6125108;23;19921;-82
2022/01/05 20:49:10;;;;;;;;;;;4.10;99.90;;;;;;6121229;23;19991;-80
2022/01/05 20:51:37;;;;;;;;;;;5.30;99.90;;;;;;6140273;23;19920;-84
2022/01/05 20:54:03;;;;;;;;;;;4.10;99.90;;;;;;6137857;23;19962;-84
2022/01/05 20:56:30;;;;;;;;;;;4.00;99.90;;;;;;6145161;23;20308;-84
2022/01/05 20:59:02;;;;;;;;;;;6.20;99.90;;;;;;6144964;23;20015;-84
2022/01/05 21:01:40;;;;;;;;;;;4.50;99.90;;;;;;6113067;23;19995;-84
2022/01/05 21:04:06;;;;;;;;;;;4.00;99.90;;;;;;6094219;23;20628;-84
2022/01/05 21:06:32;;;;;;;;;;;3.30;99.90;;;;;;6091318;23;19932;-84
2022/01/05 21:08:57;;;;;;;;;;;6.00;99.90;;;;;;6116971;23;19921;-84
2022/01/05 21:11:23;;;;;;;;;;;5.00;99.90;;;;;;6112524;23;19925;-82
2022/01/05 21:13:50;;;;;;;;;;;3.80;99.90;;;;;;6087619;23;19943;-81
2022/01/05 21:16:24;;;;;;;;;;;4.10;99.90;;;;;;6091833;23;20268;-86
2022/01/05 21:18:54;;;;;;;;;;;3.80;99.90;;;;;;6120037;23;20089;-85
2022/01/05 21:21:41;;;;;;;;;;;4.10;99.90;;;;;;6087937;23;19956;-84
2022/01/05 21:24:22;;;;;;;;;;;4.00;99.90;;;;;;6113959;23;19932;-83
2022/01/05 21:27:13;;;;;;;;;;;4.40;99.90;;;;;;6087705;23;20017;-84
2022/01/05 21:29:39;;;;;;;;;;;4.10;99.90;;;;;;6091671;23;20238;-85
2022/01/05 21:32:06;;;;;;;;;;;4.10;99.90;;;;;;6092358;23;19924;-86
2022/01/05 21:34:45;;;;;;;;;;;4.10;99.90;;;;;;6115317;23;19937;-85
2022/01/05 21:37:13;;;;;;;;;;;3.90;99.90;;;;;;6120045;23;19925;-84
2022/01/05 21:39:42;;;;;;;;;;;4.10;99.90;;;;;;6093081;23;20754;-84
2022/01/05 21:42:11;;;;;;;;;;;6.00;99.90;;;;;;6093191;23;19992;-81
2022/01/05 21:44:36;;;;;;;;;;;6.10;99.90;;;;;;6115012;23;19999;-83
2022/01/05 21:47:03;;;;;;;;;;;4.10;99.90;;;;;;6086458;23;20024;-83
2022/01/05 21:49:28;;;;;;;;;;;4.00;99.90;;;;;;6113096;23;19928;-82
2022/01/05 21:51:55;;;;;;;;;;;4.00;99.90;;;;;;6118627;23;20012;-85
2022/01/05 21:54:21;;;;;;;;;;;4.60;99.90;;;;;;6119631;23;19937;-84
2022/01/05 21:56:47;;;;;;;;;;;3.60;99.90;;;;;;6118122;23;19960;-84
2022/01/05 21:59:12;;;;;;;;;;;3.80;99.90;;;;;;6095752;23;20565;-82
2022/01/05 22:01:38;;;;;;;;;;;3.90;99.90;;;;;;6120819;23;19927;-86
2022/01/05 22:04:10;;;;;;;;;;;4.90;99.90;;;;;;6117091;23;20265;-85
2022/01/05 22:06:36;;;;;;;;;;;3.80;99.90;;;;;;6093425;23;19932;-88
2022/01/05 22:09:04;;;;;;;;;;;3.80;99.90;;;;;;6117367;23;20242;-82
2022/01/05 22:14:05;;;;;;;;;;;3.80;99.90;;;;;;6118919;23;19929;-83
2022/01/05 22:32:33;;;;;;;;;;;4.10;99.90;;;;;;6109988;23;20517;-84
2022/01/05 22:34:59;;;;;;;;;;;4.80;99.90;;;;;;6114869;23;19929;-85
2022/01/05 22:37:24;;;;;;;;;;;4.80;99.90;;;;;;6090168;23;20288;-85
2022/01/05 22:50:15;;;;;;;;;;;4.00;99.90;;;;;;5974237;23;19925;-84
2022/01/05 22:52:41;;;;;;;;;;;4.20;99.90;;;;;;5999058;23;19922;-84
2022/01/05 22:55:18;;;;;;;;;;;6.50;99.90;;;;;;6060733;23;20249;-84
2022/01/05 22:57:44;;;;;;;;;;;4.20;99.90;;;;;;6106480;23;20001;-82
2022/01/05 23:00:27;;;;;;;;;;;4.20;99.90;;;;;;6088072;23;19920;-84
2022/01/05 23:14:41;;;;;;;;;;;4.20;99.90;;;;;;6154095;23;19924;-85
2022/01/05 23:45:07;;;;;;;;;;;3.90;99.90;;;;;;6156293;23;19925;-84
